Gibson Island, Maryland
Current Conditions -  °F | °C
As of 10:54 AM on Friday 28 Nov 2014 (Local Time) from KNAK Reporting Station
Broken Clouds Broken Clouds  
Wind Chill: 31°   Ceiling: 4700
Heat Index: 39°   Visibility: 10mi
Dew Point: 23°   Wind: 15mph
Humidity: 53%   Direction: 330°NNW
Pressure: 30.3"   Gusts: NA
Location:  39.08°N, 76.43°W
Report Text: KNAK 281554Z AUTO 33013KT 10SM BKN047 BKN055 04/M05 A3030 RMK AO2 SLP261 T00391050
Loading
Personal Weather Stations






























Interactive Weather Map New forecast layout! Learn more

10-Day Weather Forecast

Advertisements
Track Severe Weather on mobile